createdAt,value
2018-08-31T00:00:13.027Z,17.20
2018-08-31T00:02:48.541Z,17.20
2018-08-31T00:05:57.710Z,17.10
2018-08-31T00:10:41.039Z,17.10
2018-08-31T00:13:10.235Z,17.10
2018-08-31T00:15:38.811Z,17.10
2018-08-31T00:18:07.315Z,17.10
2018-08-31T00:20:35.919Z,17.10
2018-08-31T00:23:04.410Z,17.10
2018-08-31T00:26:14.200Z,17.10
2018-08-31T00:29:07.379Z,17.10
2018-08-31T00:33:54.887Z,17.00
2018-08-31T00:39:09.763Z,17.00
2018-08-31T00:43:24.548Z,17.00
2018-08-31T00:45:53.124Z,17.00
2018-08-31T00:48:21.647Z,16.90
2018-08-31T00:50:51.463Z,16.80
2018-08-31T00:53:19.911Z,16.80
2018-08-31T00:55:48.361Z,16.80
2018-08-31T00:58:16.837Z,16.80
2018-08-31T01:00:45.834Z,16.70
2018-08-31T01:03:14.295Z,16.70
2018-08-31T01:05:42.735Z,16.70
2018-08-31T01:08:11.199Z,16.70
2018-08-31T01:10:39.812Z,16.70
2018-08-31T01:13:08.279Z,16.60
2018-08-31T01:15:36.730Z,16.60
2018-08-31T01:18:05.228Z,16.60
2018-08-31T01:20:33.676Z,16.60
2018-08-31T01:23:02.104Z,16.50
2018-08-31T01:25:30.550Z,16.60
2018-08-31T01:27:59.257Z,16.60
2018-08-31T01:30:27.734Z,16.70
2018-08-31T01:32:56.235Z,16.70
2018-08-31T01:35:24.913Z,16.60
2018-08-31T01:37:53.435Z,16.60
2018-08-31T01:40:21.851Z,16.60
2018-08-31T01:42:50.285Z,16.50
2018-08-31T01:45:19.003Z,16.50
2018-08-31T01:47:47.460Z,16.40
2018-08-31T01:50:16.068Z,16.40
2018-08-31T01:52:44.638Z,16.40
2018-08-31T01:55:13.220Z,16.30
2018-08-31T01:57:41.710Z,16.30
2018-08-31T02:00:10.209Z,16.20
2018-08-31T02:02:38.771Z,16.20
2018-08-31T02:05:07.355Z,16.30
2018-08-31T02:07:35.896Z,16.30
2018-08-31T02:10:04.648Z,16.30
2018-08-31T02:12:33.335Z,16.30
2018-08-31T02:15:01.767Z,16.30
2018-08-31T02:17:30.199Z,16.20
2018-08-31T02:19:58.819Z,16.20
2018-08-31T02:22:27.246Z,16.20
2018-08-31T02:24:55.870Z,16.20
2018-08-31T02:27:24.308Z,16.10
2018-08-31T02:29:52.752Z,16.10
2018-08-31T02:32:21.376Z,16.20
2018-08-31T02:34:50.236Z,16.20
2018-08-31T02:37:18.682Z,16.20
2018-08-31T02:39:47.195Z,16.00
2018-08-31T02:42:15.711Z,16.00
2018-08-31T02:44:44.225Z,16.00
2018-08-31T02:47:12.674Z,15.90
2018-08-31T02:49:41.145Z,16.00
2018-08-31T02:52:09.702Z,15.90
2018-08-31T02:54:38.194Z,16.00
2018-08-31T02:57:06.755Z,16.00
2018-08-31T02:59:35.242Z,16.00
2018-08-31T03:02:03.685Z,16.00
2018-08-31T03:04:32.143Z,15.90
2018-08-31T03:07:00.597Z,15.90
2018-08-31T03:09:29.178Z,15.90
2018-08-31T03:11:57.643Z,15.90
2018-08-31T03:14:26.157Z,16.00
2018-08-31T03:16:54.604Z,16.00
2018-08-31T03:19:23.111Z,16.00
2018-08-31T03:21:51.629Z,16.10
2018-08-31T03:24:20.159Z,16.10
2018-08-31T03:26:48.874Z,16.10
2018-08-31T03:29:17.346Z,16.10
2018-08-31T03:31:45.796Z,16.10
2018-08-31T03:34:14.310Z,16.10
2018-08-31T03:36:43.097Z,16.20
2018-08-31T03:39:11.718Z,16.20
2018-08-31T03:41:40.187Z,16.20
2018-08-31T03:44:08.711Z,16.20
2018-08-31T03:46:37.186Z,16.20
2018-08-31T03:49:05.973Z,16.20
2018-08-31T03:51:34.468Z,16.10
2018-08-31T03:54:03.162Z,16.20
2018-08-31T03:56:31.658Z,16.10
2018-08-31T03:59:00.069Z,16.10
2018-08-31T04:01:28.552Z,16.20
2018-08-31T04:03:57.047Z,16.20
2018-08-31T04:06:25.507Z,16.20
2018-08-31T04:08:54.118Z,16.10
2018-08-31T04:11:22.703Z,16.10
2018-08-31T04:13:51.163Z,16.10
2018-08-31T04:16:19.907Z,16.20
2018-08-31T04:18:48.352Z,16.20
2018-08-31T04:21:16.839Z,16.20
2018-08-31T04:23:45.239Z,16.20
2018-08-31T04:26:13.734Z,16.20
2018-08-31T04:28:42.430Z,16.20
2018-08-31T04:31:10.970Z,16.10
2018-08-31T04:33:39.426Z,16.10
2018-08-31T04:36:08.118Z,16.00
2018-08-31T04:38:36.565Z,16.10
2018-08-31T04:41:05.062Z,16.10
2018-08-31T04:43:33.498Z,16.00
2018-08-31T04:46:01.948Z,16.00
2018-08-31T04:48:30.420Z,16.00
2018-08-31T04:50:59.133Z,16.00
2018-08-31T04:53:27.591Z,16.00
2018-08-31T04:55:56.155Z,16.10
2018-08-31T04:58:24.579Z,16.10
2018-08-31T05:00:53.058Z,16.10
2018-08-31T05:03:21.726Z,16.00
2018-08-31T05:05:50.272Z,16.00
2018-08-31T05:08:18.774Z,16.10
2018-08-31T05:10:47.318Z,16.10
2018-08-31T05:13:15.966Z,16.10
2018-08-31T05:15:44.476Z,16.10
2018-08-31T05:18:13.088Z,16.10
2018-08-31T05:20:41.812Z,16.10
2018-08-31T05:23:10.369Z,16.20
2018-08-31T05:25:39.055Z,16.20
2018-08-31T05:28:07.592Z,16.20
2018-08-31T05:30:36.204Z,16.10
2018-08-31T05:33:04.798Z,16.10
2018-08-31T05:35:33.230Z,16.20
2018-08-31T05:38:01.695Z,16.20
2018-08-31T05:40:30.117Z,16.20
2018-08-31T05:42:58.682Z,16.30
2018-08-31T05:45:27.372Z,16.30
2018-08-31T05:47:56.282Z,16.20
2018-08-31T05:50:24.694Z,16.20
2018-08-31T05:52:53.356Z,16.30
2018-08-31T05:55:21.804Z,16.30
2018-08-31T05:57:50.255Z,16.30
2018-08-31T06:00:19.527Z,16.30
2018-08-31T06:02:47.975Z,16.30
2018-08-31T06:05:16.456Z,16.30
2018-08-31T06:07:45.025Z,16.40
2018-08-31T06:10:13.838Z,16.50
2018-08-31T06:12:42.329Z,16.50
2018-08-31T06:15:11.101Z,16.50
2018-08-31T06:17:39.663Z,16.60
2018-08-31T06:20:08.518Z,16.60
2018-08-31T06:22:37.054Z,16.70
2018-08-31T06:25:05.875Z,16.70
2018-08-31T06:27:34.376Z,16.80
2018-08-31T06:30:02.840Z,16.80
2018-08-31T06:32:31.394Z,16.80
2018-08-31T06:35:00.043Z,16.90
2018-08-31T06:37:28.493Z,16.90
2018-08-31T06:39:57.234Z,16.90
2018-08-31T06:42:25.863Z,16.80
2018-08-31T06:44:54.299Z,16.80
2018-08-31T06:47:22.812Z,16.70
2018-08-31T06:49:51.372Z,16.70
2018-08-31T06:52:19.862Z,16.60
2018-08-31T06:54:48.485Z,16.60
2018-08-31T06:57:16.924Z,16.60
2018-08-31T06:59:45.419Z,16.70
2018-08-31T07:02:13.892Z,16.80
2018-08-31T07:04:42.585Z,16.70
2018-08-31T07:07:11.128Z,16.80
2018-08-31T07:09:39.574Z,16.80
2018-08-31T07:12:08.058Z,16.70
2018-08-31T07:14:36.661Z,16.70
2018-08-31T07:17:05.352Z,16.70
2018-08-31T07:19:34.037Z,16.60
2018-08-31T07:22:02.527Z,16.60
2018-08-31T07:24:30.960Z,16.60
2018-08-31T07:26:59.606Z,16.60
2018-08-31T07:29:28.215Z,16.70
2018-08-31T07:31:57.542Z,16.60
2018-08-31T07:34:26.001Z,16.60
2018-08-31T07:36:54.518Z,16.60
2018-08-31T07:39:23.260Z,16.70
2018-08-31T07:41:52.042Z,16.70
2018-08-31T07:44:20.508Z,16.80
2018-08-31T07:46:49.057Z,16.70
2018-08-31T07:49:17.709Z,16.70
2018-08-31T07:51:46.499Z,16.70
2018-08-31T07:54:15.243Z,16.80
2018-08-31T07:56:43.897Z,16.80
2018-08-31T07:59:12.789Z,16.90
2018-08-31T08:01:41.359Z,16.80
2018-08-31T08:04:09.895Z,16.90
2018-08-31T08:06:38.296Z,16.90
2018-08-31T08:09:08.079Z,16.80
2018-08-31T08:11:36.714Z,16.80
2018-08-31T08:14:05.159Z,16.60
2018-08-31T08:16:33.584Z,16.60
2018-08-31T08:19:02.084Z,16.60
2018-08-31T08:21:30.832Z,16.70
2018-08-31T08:23:59.260Z,16.70
2018-08-31T08:26:27.775Z,16.70
2018-08-31T08:28:56.293Z,16.60
2018-08-31T08:31:24.761Z,16.60
2018-08-31T08:33:53.235Z,16.60
2018-08-31T08:36:21.719Z,16.60
2018-08-31T08:38:50.360Z,16.60
2018-08-31T08:41:18.908Z,16.60
2018-08-31T08:43:47.368Z,16.60
2018-08-31T08:46:16.274Z,16.60
2018-08-31T08:48:44.880Z,16.50
2018-08-31T08:51:13.466Z,16.50
2018-08-31T08:53:41.942Z,16.50
2018-08-31T08:56:10.400Z,16.40
2018-08-31T08:58:39.162Z,16.50
2018-08-31T09:01:07.652Z,16.50
2018-08-31T09:03:36.161Z,16.40
2018-08-31T09:06:04.711Z,16.40
2018-08-31T09:08:33.202Z,16.40
2018-08-31T09:11:01.795Z,16.40
2018-08-31T09:13:30.291Z,16.50
2018-08-31T09:15:59.838Z,16.40
2018-08-31T09:18:29.368Z,16.40
2018-08-31T09:20:58.287Z,16.40
2018-08-31T09:23:27.254Z,16.50
2018-08-31T09:25:57.770Z,16.50
2018-08-31T09:28:26.285Z,16.50
2018-08-31T09:30:55.464Z,16.50
2018-08-31T09:33:23.960Z,16.60
2018-08-31T09:35:52.417Z,16.80
2018-08-31T09:38:21.064Z,16.80
2018-08-31T09:40:49.751Z,16.90
2018-08-31T09:43:18.516Z,16.90
2018-08-31T09:45:51.309Z,16.90
2018-08-31T09:48:19.918Z,16.90
2018-08-31T09:50:48.413Z,16.90
2018-08-31T09:53:16.835Z,16.80
2018-08-31T09:55:45.410Z,16.90
2018-08-31T09:58:13.859Z,16.60
2018-08-31T10:00:47.799Z,16.50
2018-08-31T10:03:21.576Z,16.40
2018-08-31T10:05:50.458Z,16.40
2018-08-31T10:08:19.044Z,16.40
2018-08-31T10:10:47.650Z,16.40
2018-08-31T10:13:16.729Z,16.50
2018-08-31T10:15:45.549Z,16.50
2018-08-31T10:18:14.502Z,16.50
2018-08-31T10:20:43.073Z,16.40
2018-08-31T10:23:11.805Z,16.50
2018-08-31T10:25:41.358Z,16.50
2018-08-31T10:28:09.915Z,16.60
2018-08-31T10:30:38.579Z,16.60
2018-08-31T10:33:07.271Z,16.60
2018-08-31T10:35:36.037Z,16.70
2018-08-31T10:38:04.553Z,16.80
2018-08-31T10:40:32.998Z,16.80
2018-08-31T10:43:01.551Z,16.80
2018-08-31T10:45:30.058Z,16.80
2018-08-31T10:47:58.529Z,16.80
2018-08-31T10:50:26.994Z,16.80
2018-08-31T10:52:55.587Z,16.80
2018-08-31T10:55:24.005Z,16.70
2018-08-31T10:57:52.493Z,16.70
2018-08-31T11:00:21.085Z,16.70
2018-08-31T11:02:49.588Z,16.60
2018-08-31T11:05:18.030Z,16.70
2018-08-31T11:07:46.496Z,16.80
2018-08-31T11:10:15.030Z,16.80
2018-08-31T11:12:43.714Z,16.90
2018-08-31T11:15:12.419Z,16.80
2018-08-31T11:17:41.110Z,16.80
2018-08-31T11:20:09.612Z,16.80
2018-08-31T11:22:38.177Z,16.80
2018-08-31T11:25:06.615Z,16.80
2018-08-31T11:27:35.345Z,16.80
2018-08-31T11:30:04.015Z,16.80
2018-08-31T11:32:32.635Z,16.80
2018-08-31T11:35:01.111Z,16.80
2018-08-31T11:37:29.723Z,16.90
2018-08-31T11:39:58.147Z,16.90
2018-08-31T11:42:26.727Z,16.90
2018-08-31T11:44:55.506Z,17.00
2018-08-31T11:47:24.338Z,17.10
2018-08-31T11:49:52.863Z,17.10
2018-08-31T11:52:21.444Z,17.10
2018-08-31T11:54:49.889Z,17.10
2018-08-31T11:57:19.112Z,17.10
2018-08-31T11:59:47.649Z,17.00
2018-08-31T12:02:16.078Z,16.90
2018-08-31T12:04:44.560Z,16.90
2018-08-31T12:07:13.095Z,16.90
2018-08-31T12:09:41.900Z,16.90
2018-08-31T12:12:10.435Z,16.90
2018-08-31T12:14:38.951Z,17.00
2018-08-31T12:17:07.397Z,16.90
2018-08-31T12:19:35.823Z,16.90
2018-08-31T12:22:04.362Z,17.00
2018-08-31T12:24:32.803Z,16.90
2018-08-31T12:27:01.354Z,16.90
2018-08-31T12:29:29.862Z,16.90
2018-08-31T12:31:58.503Z,16.90
2018-08-31T12:34:27.046Z,16.80
2018-08-31T12:36:55.489Z,16.80
2018-08-31T12:39:23.939Z,16.80
2018-08-31T12:41:52.417Z,16.80
2018-08-31T12:44:20.933Z,16.80
2018-08-31T12:46:49.563Z,16.80
2018-08-31T12:49:18.062Z,16.80
2018-08-31T12:51:46.594Z,16.80
2018-08-31T12:54:15.042Z,16.90
2018-08-31T12:56:43.630Z,17.00
2018-08-31T12:59:12.083Z,17.00
2018-08-31T13:01:40.614Z,17.00
2018-08-31T13:04:09.131Z,17.10
2018-08-31T13:06:37.613Z,17.30
2018-08-31T13:09:07.084Z,17.30
2018-08-31T13:11:35.692Z,17.40
2018-08-31T13:14:04.163Z,17.40
2018-08-31T13:16:32.588Z,17.50
2018-08-31T13:19:06.998Z,17.50
2018-08-31T13:21:35.466Z,17.30
2018-08-31T13:24:03.950Z,17.30
2018-08-31T13:26:32.519Z,17.30
2018-08-31T13:29:00.978Z,17.30
2018-08-31T13:31:29.507Z,17.30
2018-08-31T13:33:58.122Z,17.20
2018-08-31T13:36:26.799Z,17.20
2018-08-31T13:38:55.259Z,17.10
2018-08-31T13:41:23.843Z,17.10
2018-08-31T13:43:52.497Z,17.10
2018-08-31T13:46:21.233Z,17.10
2018-08-31T13:48:49.992Z,17.00
2018-08-31T13:51:18.446Z,17.00
2018-08-31T13:53:47.353Z,16.90
2018-08-31T13:56:15.849Z,16.90
2018-08-31T13:58:44.302Z,17.00
2018-08-31T14:01:12.773Z,16.90
2018-08-31T14:03:41.955Z,16.90
2018-08-31T14:06:10.601Z,16.90
2018-08-31T14:08:39.146Z,16.80
2018-08-31T14:11:07.629Z,16.80
2018-08-31T14:13:36.206Z,16.90
2018-08-31T14:16:04.739Z,16.80
2018-08-31T14:18:33.731Z,16.70
2018-08-31T14:21:02.260Z,16.80
2018-08-31T14:23:30.913Z,16.70
2018-08-31T14:25:59.709Z,16.70
2018-08-31T14:28:28.292Z,16.70
2018-08-31T14:30:56.812Z,16.70
2018-08-31T14:33:25.535Z,16.70
2018-08-31T14:35:54.021Z,16.70
2018-08-31T14:38:22.577Z,16.60
2018-08-31T14:40:51.187Z,16.60
2018-08-31T14:43:19.640Z,16.60
2018-08-31T14:45:48.152Z,16.50
2018-08-31T14:48:16.591Z,16.50
2018-08-31T14:50:45.037Z,16.50
2018-08-31T14:53:13.524Z,16.50
2018-08-31T14:55:42.009Z,16.60
2018-08-31T14:58:10.610Z,16.50
2018-08-31T15:00:39.046Z,16.50
2018-08-31T15:03:07.528Z,16.50
2018-08-31T15:05:36.047Z,16.50
2018-08-31T15:08:04.672Z,16.40
2018-08-31T15:10:33.162Z,16.40
2018-08-31T15:13:01.787Z,16.40
2018-08-31T15:15:30.415Z,16.50
2018-08-31T15:17:58.860Z,16.50
2018-08-31T15:20:27.401Z,16.40
2018-08-31T15:22:55.982Z,16.30
2018-08-31T15:25:24.487Z,16.30
2018-08-31T15:27:53.190Z,16.00
2018-08-31T15:30:21.649Z,16.00
2018-08-31T15:32:50.084Z,16.00
2018-08-31T15:35:18.684Z,16.00
2018-08-31T15:37:47.168Z,15.90
2018-08-31T15:40:15.620Z,15.80
2018-08-31T15:42:44.223Z,15.90
2018-08-31T15:45:13.039Z,15.90
2018-08-31T15:47:41.536Z,15.80
2018-08-31T15:50:10.103Z,15.90
2018-08-31T15:52:38.690Z,16.00
2018-08-31T15:55:07.219Z,16.00
2018-08-31T15:57:35.806Z,16.00
2018-08-31T16:00:04.850Z,16.10
2018-08-31T16:02:33.335Z,16.30
2018-08-31T16:05:02.154Z,16.40
2018-08-31T16:07:30.753Z,16.40
2018-08-31T16:09:59.175Z,16.40
2018-08-31T16:12:27.651Z,16.40
2018-08-31T16:14:56.100Z,16.50
2018-08-31T16:17:24.641Z,16.50
2018-08-31T16:19:53.163Z,16.50
2018-08-31T16:22:21.603Z,16.60
2018-08-31T16:24:50.082Z,16.50
2018-08-31T16:27:19.134Z,16.50
2018-08-31T16:29:47.674Z,16.50
2018-08-31T16:32:16.179Z,16.40
2018-08-31T16:34:44.700Z,16.40
2018-08-31T16:37:13.148Z,16.30
2018-08-31T16:39:41.589Z,16.40
2018-08-31T16:42:10.377Z,16.40
2018-08-31T16:44:38.856Z,16.30
2018-08-31T16:47:07.391Z,16.20
2018-08-31T16:49:35.819Z,16.10
2018-08-31T16:52:04.381Z,16.10
2018-08-31T16:54:32.832Z,16.10
2018-08-31T16:57:01.299Z,16.30
2018-08-31T16:59:29.767Z,16.00
2018-08-31T17:01:58.275Z,16.00
2018-08-31T17:04:26.742Z,15.90
2018-08-31T17:06:55.187Z,16.00
2018-08-31T17:09:23.616Z,15.80
2018-08-31T17:11:52.178Z,15.80
2018-08-31T17:14:20.627Z,15.80
2018-08-31T17:16:49.136Z,15.80
2018-08-31T17:19:17.868Z,15.80
2018-08-31T17:21:46.413Z,15.80
2018-08-31T17:24:14.919Z,15.80
2018-08-31T17:26:48.602Z,15.80
2018-08-31T17:29:22.451Z,15.70
2018-08-31T17:31:56.131Z,15.70
2018-08-31T17:34:29.784Z,15.70
2018-08-31T17:37:03.486Z,15.80
2018-08-31T17:39:32.046Z,15.70
2018-08-31T17:42:00.522Z,15.70
2018-08-31T17:44:29.000Z,15.70
2018-08-31T17:46:57.428Z,15.70
2018-08-31T17:49:26.511Z,15.70
2018-08-31T17:51:55.111Z,15.60
2018-08-31T17:54:23.831Z,15.60
2018-08-31T17:56:52.418Z,15.60
2018-08-31T17:59:21.042Z,15.60
2018-08-31T18:01:49.598Z,15.60
2018-08-31T18:04:18.209Z,15.60
2018-08-31T18:06:46.769Z,15.60
2018-08-31T18:09:15.284Z,15.60
2018-08-31T18:11:43.938Z,15.60
2018-08-31T18:14:12.681Z,15.60
2018-08-31T18:16:41.272Z,15.60
2018-08-31T18:19:09.921Z,15.60
2018-08-31T18:21:38.476Z,15.60
2018-08-31T18:24:07.373Z,15.60
2018-08-31T18:26:35.807Z,15.60
2018-08-31T18:29:04.264Z,15.60
2018-08-31T18:31:32.774Z,16.20
2018-08-31T18:34:01.493Z,15.50
2018-08-31T18:36:30.266Z,15.50
2018-08-31T18:38:58.898Z,15.50
2018-08-31T18:41:27.441Z,15.40
2018-08-31T18:43:56.217Z,15.40
2018-08-31T18:46:24.828Z,15.40
2018-08-31T18:48:53.368Z,15.40
2018-08-31T18:51:21.953Z,15.30
2018-08-31T18:53:50.518Z,15.40
2018-08-31T18:56:18.964Z,15.40
2018-08-31T18:58:49.153Z,15.40
2018-08-31T19:01:17.608Z,15.40
2018-08-31T19:03:46.218Z,15.40
2018-08-31T19:06:14.680Z,15.30
2018-08-31T19:08:43.154Z,15.40
2018-08-31T19:11:11.621Z,15.40
2018-08-31T19:13:40.211Z,15.40
2018-08-31T19:16:08.695Z,15.40
2018-08-31T19:18:37.205Z,15.40
2018-08-31T19:21:05.903Z,15.40
2018-08-31T19:23:34.633Z,15.40
2018-08-31T19:26:03.089Z,15.40
2018-08-31T19:28:31.604Z,15.30
2018-08-31T19:31:00.050Z,15.30
2018-08-31T19:33:28.630Z,15.20
2018-08-31T19:35:57.134Z,15.20
2018-08-31T19:38:25.652Z,15.20
2018-08-31T19:40:54.182Z,15.20
2018-08-31T19:43:22.870Z,15.20
2018-08-31T19:45:51.314Z,15.20
2018-08-31T19:48:19.999Z,15.20
2018-08-31T19:50:48.535Z,15.20
2018-08-31T19:53:17.029Z,15.20
2018-08-31T19:55:45.554Z,15.20
2018-08-31T19:58:14.064Z,15.20
2018-08-31T20:00:42.587Z,15.20
2018-08-31T20:03:11.106Z,15.20
2018-08-31T20:05:39.826Z,15.20
2018-08-31T20:08:08.294Z,15.20
2018-08-31T20:10:36.915Z,15.20
2018-08-31T20:13:05.546Z,15.20
2018-08-31T20:15:34.050Z,15.20
2018-08-31T20:18:02.620Z,15.20
2018-08-31T20:20:31.129Z,15.10
2018-08-31T20:22:59.661Z,15.10
2018-08-31T20:25:28.159Z,15.10
2018-08-31T20:27:56.811Z,15.10
2018-08-31T20:30:25.346Z,15.10
2018-08-31T20:32:54.006Z,15.00
2018-08-31T20:35:22.488Z,15.00
2018-08-31T20:37:50.971Z,14.90
2018-08-31T20:40:19.455Z,14.90
2018-08-31T20:42:48.103Z,14.90
2018-08-31T20:45:16.681Z,14.90
2018-08-31T20:47:45.141Z,14.90
2018-08-31T20:50:13.647Z,14.90
2018-08-31T20:52:42.192Z,14.90
2018-08-31T20:55:10.754Z,14.90
2018-08-31T20:57:39.373Z,14.90
2018-08-31T21:00:07.898Z,15.00
2018-08-31T21:02:36.345Z,15.00
2018-08-31T21:05:04.822Z,15.00
2018-08-31T21:07:33.298Z,15.00
2018-08-31T21:10:01.809Z,15.00
2018-08-31T21:12:30.282Z,15.00
2018-08-31T21:14:58.909Z,15.00
2018-08-31T21:17:27.366Z,15.00
2018-08-31T21:19:56.067Z,15.10
2018-08-31T21:22:24.479Z,15.10
2018-08-31T21:24:53.112Z,15.10
2018-08-31T21:27:21.933Z,15.10
2018-08-31T21:29:50.430Z,15.10
2018-08-31T21:32:19.003Z,15.10
2018-08-31T21:34:47.610Z,15.10
2018-08-31T21:37:16.032Z,15.10
2018-08-31T21:39:51.142Z,15.00
2018-08-31T21:42:19.738Z,15.10
2018-08-31T21:44:48.444Z,15.00
2018-08-31T21:47:16.998Z,15.00
2018-08-31T21:49:45.452Z,15.00
2018-08-31T21:52:14.009Z,15.00
2018-08-31T21:54:42.493Z,15.00
2018-08-31T21:57:11.021Z,15.00
2018-08-31T21:59:39.601Z,15.00
2018-08-31T22:02:08.580Z,15.00
2018-08-31T22:04:37.278Z,15.00
2018-08-31T22:07:05.783Z,15.00
2018-08-31T22:09:34.284Z,15.00
2018-08-31T22:12:02.922Z,14.90
2018-08-31T22:14:31.342Z,14.90
2018-08-31T22:16:59.846Z,14.90
2018-08-31T22:19:28.484Z,14.90
2018-08-31T22:21:56.941Z,14.90
2018-08-31T22:24:25.554Z,14.90
2018-08-31T22:26:54.154Z,14.90
2018-08-31T22:29:22.665Z,14.90
2018-08-31T22:31:51.307Z,14.90
2018-08-31T22:34:20.225Z,14.90
2018-08-31T22:36:48.819Z,14.90
2018-08-31T22:39:17.406Z,14.90
2018-08-31T22:41:45.874Z,14.90
2018-08-31T22:44:14.338Z,14.90
2018-08-31T22:46:42.844Z,14.90
2018-08-31T22:49:11.338Z,14.90
2018-08-31T22:51:40.035Z,14.90
2018-08-31T22:54:08.530Z,14.90
2018-08-31T22:56:37.604Z,14.90
2018-08-31T22:59:06.236Z,14.90
2018-08-31T23:01:34.698Z,14.90
2018-08-31T23:04:03.400Z,14.90
2018-08-31T23:06:32.199Z,14.90
2018-08-31T23:09:00.847Z,14.90
2018-08-31T23:11:29.435Z,14.90
2018-08-31T23:13:58.129Z,15.00
2018-08-31T23:16:26.907Z,15.00
2018-08-31T23:18:55.363Z,15.00
2018-08-31T23:21:24.317Z,15.00
2018-08-31T23:23:52.838Z,15.00
2018-08-31T23:26:21.317Z,15.00
2018-08-31T23:28:49.822Z,15.00
2018-08-31T23:31:18.674Z,15.00
2018-08-31T23:33:47.138Z,15.00
2018-08-31T23:36:15.762Z,15.00
2018-08-31T23:38:44.338Z,15.00
2018-08-31T23:41:13.037Z,15.00
2018-08-31T23:43:41.500Z,15.00
2018-08-31T23:46:10.603Z,15.00
2018-08-31T23:48:39.061Z,14.90
2018-08-31T23:51:07.553Z,15.00
2018-08-31T23:53:42.878Z,15.00
2018-08-31T23:56:11.404Z,15.00
2018-08-31T23:58:39.852Z,15.00
